sensor_id;sensor_type;location;lat;lon;timestamp;pressure;altitude;pressure_sealevel;temperature;humidity
14885;BME280;7534;50.762;7.000;2022-11-02T00:00:40;149693.31;;;13.47;72.86
14885;BME280;7534;50.762;7.000;2022-11-02T00:03:06;149701.19;;;13.50;72.30
14885;BME280;7534;50.762;7.000;2022-11-02T00:05:31;149724.81;;;13.59;72.55
14885;BME280;7534;50.762;7.000;2022-11-02T00:07:57;149726.13;;;13.59;72.29
14885;BME280;7534;50.762;7.000;2022-11-02T00:10:24;149707.78;;;13.52;72.31
14885;BME280;7534;50.762;7.000;2022-11-02T00:12:51;149711.72;;;13.54;72.27
14885;BME280;7534;50.762;7.000;2022-11-02T00:15:17;149733.97;;;13.62;72.34
14885;BME280;7534;50.762;7.000;2022-11-02T00:17:46;149740.56;;;13.65;71.95
14885;BME280;7534;50.762;7.000;2022-11-02T00:20:17;149765.50;;;13.74;71.69
14885;BME280;7534;50.762;7.000;2022-11-02T00:22:47;149745.81;;;13.67;71.34
14885;BME280;7534;50.762;7.000;2022-11-02T00:25:17;149745.81;;;13.67;71.87
14885;BME280;7534;50.762;7.000;2022-11-02T00:27:46;149756.28;;;13.71;71.38
14885;BME280;7534;50.762;7.000;2022-11-02T00:30:11;149760.22;;;13.72;71.52
14885;BME280;7534;50.762;7.000;2022-11-02T00:32:37;149749.75;;;13.68;71.24
14885;BME280;7534;50.762;7.000;2022-11-02T00:35:04;149753.72;;;13.70;71.66
14885;BME280;7534;50.762;7.000;2022-11-02T00:37:30;149749.75;;;13.68;71.80
14885;BME280;7534;50.762;7.000;2022-11-02T00:39:56;149747.13;;;13.67;71.52
14885;BME280;7534;50.762;7.000;2022-11-02T00:42:22;149743.19;;;13.66;72.05
14885;BME280;7534;50.762;7.000;2022-11-02T00:44:47;149720.88;;;13.57;71.98
14885;BME280;7534;50.762;7.000;2022-11-02T00:47:13;149701.19;;;13.50;72.60
14885;BME280;7534;50.762;7.000;2022-11-02T00:49:39;149714.28;;;13.55;72.32
14885;BME280;7534;50.762;7.000;2022-11-02T00:52:04;149718.25;;;13.56;72.32
14885;BME280;7534;50.762;7.000;2022-11-02T00:54:30;149716.94;;;13.56;72.53
14885;BME280;7534;50.762;7.000;2022-11-02T00:56:56;149724.81;;;13.59;72.28
14885;BME280;7534;50.762;7.000;2022-11-02T00:59:22;149726.13;;;13.59;72.47
14885;BME280;7534;50.762;7.000;2022-11-02T01:01:48;149727.44;;;13.60;72.40
14885;BME280;7534;50.762;7.000;2022-11-02T01:04:14;149731.41;;;13.61;72.70
14885;BME280;7534;50.762;7.000;2022-11-02T01:06:41;149731.41;;;13.61;72.56
14885;BME280;7534;50.762;7.000;2022-11-02T01:09:08;149731.41;;;13.61;72.55
14885;BME280;7534;50.762;7.000;2022-11-02T01:11:34;149731.41;;;13.61;72.58
14885;BME280;7534;50.762;7.000;2022-11-02T01:14:00;149739.25;;;13.64;72.56
14885;BME280;7534;50.762;7.000;2022-11-02T01:16:26;149745.81;;;13.67;72.49
14885;BME280;7534;50.762;7.000;2022-11-02T01:18:53;149748.44;;;13.68;72.33
14885;BME280;7534;50.762;7.000;2022-11-02T01:21:20;149744.50;;;13.66;72.35
14885;BME280;7534;50.762;7.000;2022-11-02T01:23:46;149741.88;;;13.65;72.33
14885;BME280;7534;50.762;7.000;2022-11-02T01:26:13;149748.44;;;13.68;72.82
14885;BME280;7534;50.762;7.000;2022-11-02T01:28:39;149752.38;;;13.69;72.75
14885;BME280;7534;50.762;7.000;2022-11-02T01:31:06;149777.28;;;13.79;72.41
14885;BME280;7534;50.762;7.000;2022-11-02T01:33:33;149756.28;;;13.71;72.87
14885;BME280;7534;50.762;7.000;2022-11-02T01:36:03;149769.44;;;13.76;72.66
14885;BME280;7534;50.762;7.000;2022-11-02T01:38:31;149773.38;;;13.78;72.33
14885;BME280;7534;50.762;7.000;2022-11-02T01:40:58;149769.44;;;13.76;72.51
14885;BME280;7534;50.762;7.000;2022-11-02T01:43:35;149756.28;;;13.71;72.69
14885;BME280;7534;50.762;7.000;2022-11-02T01:52:10;149764.19;;;13.74;72.45
14885;BME280;7534;50.762;7.000;2022-11-02T01:54:55;149739.25;;;13.64;72.53
14885;BME280;7534;50.762;7.000;2022-11-02T01:57:26;149724.81;;;13.59;72.88
14885;BME280;7534;50.762;7.000;2022-11-02T02:00:05;149703.81;;;13.51;73.58
14885;BME280;7534;50.762;7.000;2022-11-02T02:02:36;149719.56;;;13.57;73.37
14885;BME280;7534;50.762;7.000;2022-11-02T02:05:08;149697.25;;;13.48;73.88
14885;BME280;7534;50.762;7.000;2022-11-02T02:07:38;149674.94;;;13.40;74.31
14885;BME280;7534;50.762;7.000;2022-11-02T02:10:06;149660.53;;;13.34;74.83
14885;BME280;7534;50.762;7.000;2022-11-02T02:12:34;149652.66;;;13.31;75.24
14885;BME280;7534;50.762;7.000;2022-11-02T02:15:02;149646.13;;;13.28;75.41
14885;BME280;7534;50.762;7.000;2022-11-02T02:17:47;149625.13;;;13.20;75.86
14885;BME280;7534;50.762;7.000;2022-11-02T02:27:20;149526.69;;;12.82;77.75
14885;BME280;7534;50.762;7.000;2022-11-02T02:30:02;149491.31;;;12.69;78.78
14885;BME280;7534;50.762;7.000;2022-11-02T02:32:49;149469.00;;;12.60;79.34
14885;BME280;7534;50.762;7.000;2022-11-02T02:35:40;149438.88;;;12.48;79.83
14885;BME280;7534;50.762;7.000;2022-11-02T02:38:16;149421.81;;;12.42;80.30
14885;BME280;7534;50.762;7.000;2022-11-02T02:41:11;149395.63;;;12.32;80.86
14885;BME280;7534;50.762;7.000;2022-11-02T02:43:54;149385.13;;;12.28;81.06
14885;BME280;7534;50.762;7.000;2022-11-02T02:46:29;149355.00;;;12.16;82.13
14885;BME280;7534;50.762;7.000;2022-11-02T02:49:14;149316.97;;;12.01;82.99
14885;BME280;7534;50.762;7.000;2022-11-02T02:51:44;149313.06;;;12.00;83.27
14885;BME280;7534;50.762;7.000;2022-11-02T02:54:21;149324.84;;;12.04;83.11
14885;BME280;7534;50.762;7.000;2022-11-02T02:56:53;149307.81;;;11.98;83.40
14885;BME280;7534;50.762;7.000;2022-11-02T02:59:26;149289.47;;;11.91;83.69
14885;BME280;7534;50.762;7.000;2022-11-02T03:01:55;149286.84;;;11.90;83.99
14885;BME280;7534;50.762;7.000;2022-11-02T03:04:21;149280.28;;;11.87;84.39
14885;BME280;7534;50.762;7.000;2022-11-02T03:06:52;149255.38;;;11.77;85.21
14885;BME280;7534;50.762;7.000;2022-11-02T03:09:33;149255.38;;;11.77;85.29
14885;BME280;7534;50.762;7.000;2022-11-02T03:12:21;149235.69;;;11.70;85.65
14885;BME280;7534;50.762;7.000;2022-11-02T03:21:36;149200.34;;;11.56;87.30
14885;BME280;7534;50.762;7.000;2022-11-02T03:24:33;149189.84;;;11.52;87.63
14885;BME280;7534;50.762;7.000;2022-11-02T03:30:13;149196.41;;;11.55;87.85
14885;BME280;7534;50.762;7.000;2022-11-02T03:33:19;149189.84;;;11.52;87.67
14885;BME280;7534;50.762;7.000;2022-11-02T03:38:40;149182.00;;;11.49;88.57
14885;BME280;7534;50.762;7.000;2022-11-02T03:41:08;149184.63;;;11.50;88.52
14885;BME280;7534;50.762;7.000;2022-11-02T03:43:37;149175.44;;;11.46;88.66
14885;BME280;7534;50.762;7.000;2022-11-02T03:46:06;149179.38;;;11.48;88.92
14885;BME280;7534;50.762;7.000;2022-11-02T03:48:47;149187.25;;;11.51;88.87
14885;BME280;7534;50.762;7.000;2022-11-02T03:51:20;149200.34;;;11.56;87.99
14885;BME280;7534;50.762;7.000;2022-11-02T03:54:03;149163.69;;;11.42;88.79
14885;BME280;7534;50.762;7.000;2022-11-02T03:56:47;149151.88;;;11.37;89.00
14885;BME280;7534;50.762;7.000;2022-11-02T03:59:14;149142.72;;;11.34;89.15
14885;BME280;7534;50.762;7.000;2022-11-02T04:01:44;149142.72;;;11.34;89.28
14885;BME280;7534;50.762;7.000;2022-11-02T04:04:11;149147.94;;;11.36;89.24
14885;BME280;7534;50.762;7.000;2022-11-02T04:06:38;149140.09;;;11.33;89.15
14885;BME280;7534;50.762;7.000;2022-11-02T04:09:05;149158.44;;;11.40;88.69
14885;BME280;7534;50.762;7.000;2022-11-02T04:11:31;149137.47;;;11.32;89.05
14885;BME280;7534;50.762;7.000;2022-11-02T04:14:16;149137.47;;;11.32;89.27
14885;BME280;7534;50.762;7.000;2022-11-02T04:17:04;149125.66;;;11.27;89.38
14885;BME280;7534;50.762;7.000;2022-11-02T04:19:49;149126.97;;;11.28;89.69
14885;BME280;7534;50.762;7.000;2022-11-02T04:22:15;149125.66;;;11.27;89.55
14885;BME280;7534;50.762;7.000;2022-11-02T04:25:00;149120.47;;;11.25;89.87
14885;BME280;7534;50.762;7.000;2022-11-02T04:27:45;149138.78;;;11.32;90.06
14885;BME280;7534;50.762;7.000;2022-11-02T04:30:13;149158.44;;;11.40;89.51
14885;BME280;7534;50.762;7.000;2022-11-02T04:32:42;149167.56;;;11.43;89.45
14885;BME280;7534;50.762;7.000;2022-11-02T04:35:26;149180.69;;;11.48;88.61
14885;BME280;7534;50.762;7.000;2022-11-02T04:37:52;149167.56;;;11.43;88.69
14885;BME280;7534;50.762;7.000;2022-11-02T04:40:36;149166.31;;;11.43;88.54
14885;BME280;7534;50.762;7.000;2022-11-02T04:43:02;149145.34;;;11.35;88.46
14885;BME280;7534;50.762;7.000;2022-11-02T04:45:27;149147.94;;;11.36;88.62
14885;BME280;7534;50.762;7.000;2022-11-02T04:48:04;149140.09;;;11.33;88.79
14885;BME280;7534;50.762;7.000;2022-11-02T04:50:30;149128.28;;;11.28;88.77
14885;BME280;7534;50.762;7.000;2022-11-02T04:53:01;149132.22;;;11.30;88.28
14885;BME280;7534;50.762;7.000;2022-11-02T04:55:29;149125.66;;;11.27;88.60
14885;BME280;7534;50.762;7.000;2022-11-02T04:57:54;149124.41;;;11.27;88.64
14885;BME280;7534;50.762;7.000;2022-11-02T05:00:21;149096.88;;;11.16;88.86
14885;BME280;7534;50.762;7.000;2022-11-02T05:02:49;149091.63;;;11.14;89.16
14885;BME280;7534;50.762;7.000;2022-11-02T05:05:16;149066.75;;;11.04;89.40
14885;BME280;7534;50.762;7.000;2022-11-02T05:07:43;149061.56;;;11.02;89.64
14885;BME280;7534;50.762;7.000;2022-11-02T05:10:09;149082.50;;;11.11;89.49
14885;BME280;7534;50.762;7.000;2022-11-02T05:12:35;149086.38;;;11.12;88.84
14885;BME280;7534;50.762;7.000;2022-11-02T05:15:01;149073.31;;;11.07;88.75
14885;BME280;7534;50.762;7.000;2022-11-02T05:17:27;149058.94;;;11.01;88.66
14885;BME280;7534;50.762;7.000;2022-11-02T05:19:53;149061.56;;;11.02;88.52
14885;BME280;7534;50.762;7.000;2022-11-02T05:22:19;149074.63;;;11.07;87.74
14885;BME280;7534;50.762;7.000;2022-11-02T05:24:46;149090.31;;;11.14;86.42
14885;BME280;7534;50.762;7.000;2022-11-02T05:27:12;149102.13;;;11.18;85.83
14885;BME280;7534;50.762;7.000;2022-11-02T05:29:38;149121.78;;;11.26;85.42
14885;BME280;7534;50.762;7.000;2022-11-02T05:32:04;149142.72;;;11.34;84.78
14885;BME280;7534;50.762;7.000;2022-11-02T05:34:30;149149.25;;;11.36;84.27
14885;BME280;7534;50.762;7.000;2022-11-02T05:36:55;149133.53;;;11.30;84.19
14885;BME280;7534;50.762;7.000;2022-11-02T05:39:21;149120.47;;;11.25;84.24
14885;BME280;7534;50.762;7.000;2022-11-02T05:41:46;149120.47;;;11.25;84.22
14885;BME280;7534;50.762;7.000;2022-11-02T05:44:12;149107.34;;;11.20;84.64
14885;BME280;7534;50.762;7.000;2022-11-02T05:46:38;149100.81;;;11.18;84.29
14885;BME280;7534;50.762;7.000;2022-11-02T05:49:03;149100.81;;;11.18;84.30
14885;BME280;7534;50.762;7.000;2022-11-02T05:51:29;149111.28;;;11.22;84.46
14885;BME280;7534;50.762;7.000;2022-11-02T05:53:55;149098.19;;;11.17;84.17
14885;BME280;7534;50.762;7.000;2022-11-02T05:56:20;149106.03;;;11.20;84.55
14885;BME280;7534;50.762;7.000;2022-11-02T05:58:46;149099.50;;;11.17;84.22
14885;BME280;7534;50.762;7.000;2022-11-02T06:01:12;149103.44;;;11.19;83.95
14885;BME280;7534;50.762;7.000;2022-11-02T06:03:47;149096.88;;;11.16;83.57
14885;BME280;7534;50.762;7.000;2022-11-02T06:06:12;149061.56;;;11.02;84.72
14885;BME280;7534;50.762;7.000;2022-11-02T06:08:38;149073.31;;;11.07;85.07
14885;BME280;7534;50.762;7.000;2022-11-02T06:11:09;149062.81;;;11.03;84.84
14885;BME280;7534;50.762;7.000;2022-11-02T06:13:36;149073.31;;;11.07;84.74
14885;BME280;7534;50.762;7.000;2022-11-02T06:16:04;149073.31;;;11.07;84.54
14885;BME280;7534;50.762;7.000;2022-11-02T06:18:31;149077.25;;;11.08;84.90
14885;BME280;7534;50.762;7.000;2022-11-02T06:20:57;149069.38;;;11.05;85.09
14885;BME280;7534;50.762;7.000;2022-11-02T06:23:25;149058.94;;;11.01;85.86
14885;BME280;7534;50.762;7.000;2022-11-02T06:25:56;149074.63;;;11.07;85.76
14885;BME280;7534;50.762;7.000;2022-11-02T06:28:23;149098.19;;;11.17;85.45
14885;BME280;7534;50.762;7.000;2022-11-02T06:30:49;149089.00;;;11.13;85.18
14885;BME280;7534;50.762;7.000;2022-11-02T06:33:17;149111.28;;;11.22;84.64
14885;BME280;7534;50.762;7.000;2022-11-02T06:35:48;149132.22;;;11.30;84.21
14885;BME280;7534;50.762;7.000;2022-11-02T06:38:15;149142.72;;;11.34;84.12
14885;BME280;7534;50.762;7.000;2022-11-02T06:40:42;149174.13;;;11.46;83.27
14885;BME280;7534;50.762;7.000;2022-11-02T06:43:08;149187.25;;;11.51;83.07
14885;BME280;7534;50.762;7.000;2022-11-02T06:45:34;149223.94;;;11.65;82.31
14885;BME280;7534;50.762;7.000;2022-11-02T06:48:00;149223.94;;;11.65;82.05
14885;BME280;7534;50.762;7.000;2022-11-02T06:50:26;149251.44;;;11.76;81.59
14885;BME280;7534;50.762;7.000;2022-11-02T06:52:52;149259.31;;;11.79;80.87
14885;BME280;7534;50.762;7.000;2022-11-02T06:55:18;149265.91;;;11.81;80.51
14885;BME280;7534;50.762;7.000;2022-11-02T06:57:44;149285.53;;;11.89;79.80
14885;BME280;7534;50.762;7.000;2022-11-02T07:00:13;149299.94;;;11.95;79.58
14885;BME280;7534;50.762;7.000;2022-11-02T07:02:45;149328.78;;;12.06;78.97
14885;BME280;7534;50.762;7.000;2022-11-02T07:05:12;149378.56;;;12.25;77.92
14885;BME280;7534;50.762;7.000;2022-11-02T07:07:37;149399.53;;;12.33;77.25
14885;BME280;7534;50.762;7.000;2022-11-02T07:10:04;149474.28;;;12.62;76.89
14885;BME280;7534;50.762;7.000;2022-11-02T07:12:31;149661.84;;;13.34;75.28
14885;BME280;7534;50.762;7.000;2022-11-02T07:14:57;149892.81;;;14.24;71.20
14885;BME280;7534;50.762;7.000;2022-11-02T07:17:23;150080.66;;;14.96;67.20
14885;BME280;7534;50.762;7.000;2022-11-02T07:19:49;150227.81;;;15.53;63.73
14885;BME280;7534;50.762;7.000;2022-11-02T07:22:14;150284.38;;;15.75;62.21
14885;BME280;7534;50.762;7.000;2022-11-02T07:24:41;150417.16;;;16.26;60.50
14885;BME280;7534;50.762;7.000;2022-11-02T07:27:07;150576.34;;;16.87;58.00
14885;BME280;7534;50.762;7.000;2022-11-02T07:29:32;150776.47;;;17.64;55.81
14885;BME280;7534;50.762;7.000;2022-11-02T07:31:58;150959.50;;;18.35;53.39
14885;BME280;7534;50.762;7.000;2022-11-02T07:34:24;151008.28;;;18.53;51.96
14885;BME280;7534;50.762;7.000;2022-11-02T07:36:49;151227.13;;;19.37;49.12
14885;BME280;7534;50.762;7.000;2022-11-02T07:39:15;151465.84;;;20.29;46.90
14885;BME280;7534;50.762;7.000;2022-11-02T07:41:42;151630.84;;;20.92;45.06
14885;BME280;7534;50.762;7.000;2022-11-02T07:44:07;151559.59;;;20.65;45.43
14885;BME280;7534;50.762;7.000;2022-11-02T07:46:33;151579.38;;;20.73;44.68
14885;BME280;7534;50.762;7.000;2022-11-02T07:48:59;151722.00;;;21.27;43.62
14885;BME280;7534;50.762;7.000;2022-11-02T07:51:25;151776.16;;;21.48;42.70
14885;BME280;7534;50.762;7.000;2022-11-02T07:53:50;151477.78;;;20.34;43.83
14885;BME280;7534;50.762;7.000;2022-11-02T07:56:16;151579.38;;;20.73;44.02
14885;BME280;7534;50.762;7.000;2022-11-02T07:58:42;151559.59;;;20.65;44.03
14885;BME280;7534;50.762;7.000;2022-11-02T08:01:07;151541.13;;;20.58;43.76
14885;BME280;7534;50.762;7.000;2022-11-02T08:03:33;151608.41;;;20.84;43.18
14885;BME280;7534;50.762;7.000;2022-11-02T08:06:02;151764.25;;;21.44;42.14
14885;BME280;7534;50.762;7.000;2022-11-02T08:08:28;151744.44;;;21.36;41.71
14885;BME280;7534;50.762;7.000;2022-11-02T08:10:54;151773.50;;;21.47;41.83
14885;BME280;7534;50.762;7.000;2022-11-02T08:13:22;151909.56;;;21.99;40.06
14885;BME280;7534;50.762;7.000;2022-11-02T08:15:53;151869.91;;;21.84;40.64
14885;BME280;7534;50.762;7.000;2022-11-02T08:18:24;151941.31;;;22.12;39.98
14885;BME280;7534;50.762;7.000;2022-11-02T08:20:51;152172.63;;;23.00;38.25
14885;BME280;7534;50.762;7.000;2022-11-02T08:23:19;152300.94;;;23.49;37.30
14885;BME280;7534;50.762;7.000;2022-11-02T08:25:47;152143.53;;;22.89;37.35
14885;BME280;7534;50.762;7.000;2022-11-02T08:28:17;151844.78;;;21.75;39.50
14885;BME280;7534;50.762;7.000;2022-11-02T08:30:43;151467.16;;;20.30;43.30
14885;BME280;7534;50.762;7.000;2022-11-02T08:33:14;151394.63;;;20.02;43.59
14885;BME280;7534;50.762;7.000;2022-11-02T08:35:42;151392.00;;;20.01;43.68
14885;BME280;7534;50.762;7.000;2022-11-02T08:38:08;151575.41;;;20.71;42.99
14885;BME280;7534;50.762;7.000;2022-11-02T08:40:35;151682.34;;;21.12;41.69
14885;BME280;7534;50.762;7.000;2022-11-02T08:43:09;151955.81;;;22.17;39.97
14885;BME280;7534;50.762;7.000;2022-11-02T08:45:37;151941.31;;;22.12;39.45
14885;BME280;7534;50.762;7.000;2022-11-02T08:48:04;152173.97;;;23.01;38.11
14885;BME280;7534;50.762;7.000;2022-11-02T08:50:47;152241.41;;;23.27;36.83
14885;BME280;7534;50.762;7.000;2022-11-02T08:53:13;152278.41;;;23.41;36.59
14885;BME280;7534;50.762;7.000;2022-11-02T08:55:40;152175.28;;;23.01;37.03
14885;BME280;7534;50.762;7.000;2022-11-02T08:58:06;151939.97;;;22.11;39.22
14885;BME280;7534;50.762;7.000;2022-11-02T09:00:33;151942.63;;;22.12;39.21
14885;BME280;7534;50.762;7.000;2022-11-02T09:03:10;152283.72;;;23.43;37.57
14885;BME280;7534;50.762;7.000;2022-11-02T09:05:39;151971.66;;;22.23;38.70
14885;BME280;7534;50.762;7.000;2022-11-02T09:08:10;151933.34;;;22.08;39.25
14885;BME280;7534;50.762;7.000;2022-11-02T09:10:37;151925.41;;;22.05;39.17
14885;BME280;7534;50.762;7.000;2022-11-02T09:13:06;151749.72;;;21.38;40.51
14885;BME280;7534;50.762;7.000;2022-11-02T09:15:35;151785.38;;;21.52;39.78
14885;BME280;7534;50.762;7.000;2022-11-02T09:18:01;151884.41;;;21.90;39.47
14885;BME280;7534;50.762;7.000;2022-11-02T09:20:27;152074.72;;;22.63;38.45
14885;BME280;7534;50.762;7.000;2022-11-02T09:22:53;152222.84;;;23.19;37.22
14885;BME280;7534;50.762;7.000;2022-11-02T09:25:19;152012.63;;;22.39;37.63
14885;BME280;7534;50.762;7.000;2022-11-02T09:27:45;151926.75;;;22.06;38.86
14885;BME280;7534;50.762;7.000;2022-11-02T09:30:12;151883.09;;;21.89;39.19
14885;BME280;7534;50.762;7.000;2022-11-02T09:32:38;151464.50;;;20.29;41.56
14885;BME280;7534;50.762;7.000;2022-11-02T09:35:09;151262.75;;;19.51;43.46
14885;BME280;7534;50.762;7.000;2022-11-02T09:37:35;151154.59;;;19.10;44.57
14885;BME280;7534;50.762;7.000;2022-11-02T09:40:04;150981.91;;;18.43;45.68
14885;BME280;7534;50.762;7.000;2022-11-02T09:42:52;150958.19;;;18.34;46.86
14885;BME280;7534;50.762;7.000;2022-11-02T09:45:22;150758.00;;;17.57;48.12
14885;BME280;7534;50.762;7.000;2022-11-02T09:47:56;150742.22;;;17.51;49.28
14885;BME280;7534;50.762;7.000;2022-11-02T09:50:38;150610.59;;;17.00;49.48
14885;BME280;7534;50.762;7.000;2022-11-02T09:53:13;150569.81;;;16.85;49.76
14885;BME280;7534;50.762;7.000;2022-11-02T09:55:51;150453.97;;;16.40;50.77
14885;BME280;7534;50.762;7.000;2022-11-02T09:58:28;150434.25;;;16.32;52.30
14885;BME280;7534;50.762;7.000;2022-11-02T10:01:04;150375.09;;;16.10;52.26
14885;BME280;7534;50.762;7.000;2022-11-02T10:04:20;150397.44;;;16.18;52.83
14885;BME280;7534;50.762;7.000;2022-11-02T10:07:49;150401.41;;;16.20;52.41
14885;BME280;7534;50.762;7.000;2022-11-02T10:10:52;150363.28;;;16.05;51.77
14885;BME280;7534;50.762;7.000;2022-11-02T10:14:01;150323.78;;;15.90;52.38
14885;BME280;7534;50.762;7.000;2022-11-02T10:16:40;150323.78;;;15.90;52.70
14885;BME280;7534;50.762;7.000;2022-11-02T10:19:17;150355.38;;;16.02;52.39
14885;BME280;7534;50.762;7.000;2022-11-02T10:21:48;150481.63;;;16.51;51.91
14885;BME280;7534;50.762;7.000;2022-11-02T10:24:36;150457.94;;;16.41;51.52
14885;BME280;7534;50.762;7.000;2022-11-02T10:27:17;150434.25;;;16.32;50.00
14885;BME280;7534;50.762;7.000;2022-11-02T10:30:12;150417.16;;;16.26;49.95
14885;BME280;7534;50.762;7.000;2022-11-02T10:32:39;150417.16;;;16.26;50.41
14885;BME280;7534;50.762;7.000;2022-11-02T10:35:29;150471.06;;;16.47;49.93
14885;BME280;7534;50.762;7.000;2022-11-02T10:47:17;150571.13;;;16.85;47.97
14885;BME280;7534;50.762;7.000;2022-11-02T10:53:02;150552.72;;;16.78;48.23
14885;BME280;7534;50.762;7.000;2022-11-02T10:55:43;150563.22;;;16.82;49.68
14885;BME280;7534;50.762;7.000;2022-11-02T10:58:18;150576.34;;;16.87;48.69
14885;BME280;7534;50.762;7.000;2022-11-02T11:00:44;150573.78;;;16.86;47.90
14885;BME280;7534;50.762;7.000;2022-11-02T11:03:17;150542.16;;;16.74;48.60
14885;BME280;7534;50.762;7.000;2022-11-02T11:08:42;150506.63;;;16.60;49.30
14885;BME280;7534;50.762;7.000;2022-11-02T11:11:13;150492.13;;;16.55;50.18
14885;BME280;7534;50.762;7.000;2022-11-02T11:13:41;150531.66;;;16.70;50.02
14885;BME280;7534;50.762;7.000;2022-11-02T11:16:08;150489.53;;;16.54;49.95
14885;BME280;7534;50.762;7.000;2022-11-02T11:18:36;150493.44;;;16.55;50.39
14885;BME280;7534;50.762;7.000;2022-11-02T11:21:04;150507.97;;;16.61;51.26
14885;BME280;7534;50.762;7.000;2022-11-02T11:23:30;150475.03;;;16.48;51.17
14885;BME280;7534;50.762;7.000;2022-11-02T11:26:04;150455.28;;;16.40;51.27
14885;BME280;7534;50.762;7.000;2022-11-02T11:28:38;150428.97;;;16.30;51.71
14885;BME280;7534;50.762;7.000;2022-11-02T11:31:17;150384.31;;;16.13;52.62
14885;BME280;7534;50.762;7.000;2022-11-02T11:33:54;150383.00;;;16.13;52.65
14885;BME280;7534;50.762;7.000;2022-11-02T11:36:30;150363.28;;;16.05;53.27
14885;BME280;7534;50.762;7.000;2022-11-02T11:39:21;150351.41;;;16.00;53.55
14885;BME280;7534;50.762;7.000;2022-11-02T11:41:48;150390.84;;;16.16;54.24
14885;BME280;7534;50.762;7.000;2022-11-02T11:44:15;150430.31;;;16.31;53.75
14885;BME280;7534;50.762;7.000;2022-11-02T11:46:56;150465.84;;;16.45;53.95
14885;BME280;7534;50.762;7.000;2022-11-02T11:51:54;150459.25;;;16.42;53.37
14885;BME280;7534;50.762;7.000;2022-11-02T11:54:26;150384.31;;;16.13;53.27
14885;BME280;7534;50.762;7.000;2022-11-02T11:56:58;150388.22;;;16.15;53.60
14885;BME280;7534;50.762;7.000;2022-11-02T11:59:48;150447.44;;;16.37;53.47
14885;BME280;7534;50.762;7.000;2022-11-02T12:02:32;150506.63;;;16.60;52.58
14885;BME280;7534;50.762;7.000;2022-11-02T12:05:15;150547.44;;;16.76;51.90
14885;BME280;7534;50.762;7.000;2022-11-02T12:08:07;150510.63;;;16.62;50.56
14885;BME280;7534;50.762;7.000;2022-11-02T12:11:06;150526.41;;;16.68;51.15
14885;BME280;7534;50.762;7.000;2022-11-02T12:19:53;150577.69;;;16.88;51.45
14885;BME280;7534;50.762;7.000;2022-11-02T12:22:49;150605.31;;;16.98;50.45
14885;BME280;7534;50.762;7.000;2022-11-02T12:28:57;150664.53;;;17.21;47.42
14885;BME280;7534;50.762;7.000;2022-11-02T12:31:48;150671.13;;;17.24;48.75
14885;BME280;7534;50.762;7.000;2022-11-02T12:35:07;150707.97;;;17.38;48.93
14885;BME280;7534;50.762;7.000;2022-11-02T12:38:07;150760.66;;;17.58;48.32
14885;BME280;7534;50.762;7.000;2022-11-02T12:41:10;150747.44;;;17.53;47.80
14885;BME280;7534;50.762;7.000;2022-11-02T12:43:46;150692.19;;;17.32;48.12
14885;BME280;7534;50.762;7.000;2022-11-02T12:46:54;150660.56;;;17.20;48.00
14885;BME280;7534;50.762;7.000;2022-11-02T12:52:50;150632.97;;;17.09;47.85
14885;BME280;7534;50.762;7.000;2022-11-02T12:55:48;150657.97;;;17.19;47.47
14885;BME280;7534;50.762;7.000;2022-11-02T12:58:22;150717.19;;;17.41;47.27
14885;BME280;7534;50.762;7.000;2022-11-02T13:00:57;150729.03;;;17.46;47.40
14885;BME280;7534;50.762;7.000;2022-11-02T13:03:59;150765.88;;;17.60;47.21
14885;BME280;7534;50.762;7.000;2022-11-02T13:06:38;150739.56;;;17.50;47.32
14885;BME280;7534;50.762;7.000;2022-11-02T13:09:14;150709.28;;;17.38;47.68
14885;BME280;7534;50.762;7.000;2022-11-02T13:11:55;150600.03;;;16.96;47.54
14885;BME280;7534;50.762;7.000;2022-11-02T13:14:38;150529.03;;;16.69;48.07
14885;BME280;7534;50.762;7.000;2022-11-02T13:19:54;150513.22;;;16.63;48.44
14885;BME280;7534;50.762;7.000;2022-11-02T13:22:29;150565.84;;;16.83;48.84
14885;BME280;7534;50.762;7.000;2022-11-02T13:25:32;150619.78;;;17.04;48.42
14885;BME280;7534;50.762;7.000;2022-11-02T13:28:05;150684.25;;;17.29;48.08
14885;BME280;7534;50.762;7.000;2022-11-02T13:30:35;150742.22;;;17.51;47.38
14885;BME280;7534;50.762;7.000;2022-11-02T13:33:22;150804.13;;;17.75;47.25
14885;BME280;7534;50.762;7.000;2022-11-02T13:35:50;150852.81;;;17.93;47.75
14885;BME280;7534;50.762;7.000;2022-11-02T13:38:46;150897.59;;;18.11;47.20
14885;BME280;7534;50.762;7.000;2022-11-02T13:41:59;150937.13;;;18.26;46.80
14885;BME280;7534;50.762;7.000;2022-11-02T13:50:47;150765.88;;;17.60;45.89
14885;BME280;7534;50.762;7.000;2022-11-02T13:53:21;150755.38;;;17.56;46.03
14885;BME280;7534;50.762;7.000;2022-11-02T13:55:58;150726.38;;;17.45;46.95
14885;BME280;7534;50.762;7.000;2022-11-02T13:58:37;150610.59;;;17.00;47.24
14885;BME280;7534;50.762;7.000;2022-11-02T14:01:10;150621.09;;;17.04;47.98
14885;BME280;7534;50.762;7.000;2022-11-02T14:04:02;150644.78;;;17.13;48.94
14885;BME280;7534;50.762;7.000;2022-11-02T14:06:33;150667.16;;;17.22;50.19
14885;BME280;7534;50.762;7.000;2022-11-02T14:09:09;150639.50;;;17.11;48.86
14885;BME280;7534;50.762;7.000;2022-11-02T14:27:03;150606.66;;;16.99;48.64
14885;BME280;7534;50.762;7.000;2022-11-02T14:29:54;150636.94;;;17.10;47.96
14885;BME280;7534;50.762;7.000;2022-11-02T14:35:26;150563.22;;;16.82;48.39
14885;BME280;7534;50.762;7.000;2022-11-02T14:38:24;150498.72;;;16.57;48.26
14885;BME280;7534;50.762;7.000;2022-11-02T14:46:56;150406.63;;;16.22;49.50
14885;BME280;7534;50.762;7.000;2022-11-02T14:49:37;150415.84;;;16.25;49.53
14885;BME280;7534;50.762;7.000;2022-11-02T14:52:19;150371.13;;;16.08;48.13
14885;BME280;7534;50.762;7.000;2022-11-02T14:54:58;150355.38;;;16.02;48.72
14885;BME280;7534;50.762;7.000;2022-11-02T14:57:32;150347.47;;;15.99;49.74
14885;BME280;7534;50.762;7.000;2022-11-02T15:00:26;150314.63;;;15.86;49.52